Главная страница
METAR-TAF:

METAR-TAF

Аэропорты :

военная авиабаза

Линчёпинг, Швеция

широта: 58-24N, долгота: 015-31E, высота над уровнем моря: 93 м

Текущие метеонаблюдения

Эта сводка был подготовлена 38 минут назад, в 15:20 UTC
Ветер 9 Узел от восточно-северо-восточный
Температура 14°C
Влажность 77%
Давление 1008 hPa
Видимость 10 км и более

METAR: ESCF 221520Z AUTO 06009KT 9999 OVC056/// 14/10 Q1008

Время: 17:58 (15:58 UTC)


TAF: отсутствует

Метеонаблюдения и прогнозы для более 4000 аэропортов (сводки METAR и TAF).

Имеющиеся станции представлены на карте желтыми и красными точками.

Чтобы увидеть название станции, наведите на нее мышь.

Затем щелкните, чтобы увидеть метеонаблюдения и метеопрогнозы.

Управление картой: чтобы увеличить масштаб, щелкните зеленые кнопки с черным крестиком; чтобы уменьшить масштаб, щелкните зеленую кнопку с тире; для просмотра соседних карт щелкайте зеленые стрелки.


METAR-TAF: